sensor_id;sensor_type;location;lat;lon;timestamp;P1;durP1;ratioP1;P2;durP2;ratioP2
66761;SDS011;53672;48.176;16.338;2023-10-13T00:04:37;12.95;;;5.97;;
66761;SDS011;53672;48.176;16.338;2023-10-13T00:09:38;13.18;;;5.90;;
66761;SDS011;53672;48.176;16.338;2023-10-13T00:14:40;12.97;;;5.50;;
66761;SDS011;53672;48.176;16.338;2023-10-13T00:19:40;13.77;;;5.80;;
66761;SDS011;53672;48.176;16.338;2023-10-13T00:24:41;15.07;;;6.40;;
66761;SDS011;53672;48.176;16.338;2023-10-13T00:29:45;13.02;;;6.28;;
66761;SDS011;53672;48.176;16.338;2023-10-13T00:34:45;15.00;;;6.28;;
66761;SDS011;53672;48.176;16.338;2023-10-13T00:39:46;13.97;;;6.10;;
66761;SDS011;53672;48.176;16.338;2023-10-13T00:44:48;10.97;;;5.80;;
66761;SDS011;53672;48.176;16.338;2023-10-13T00:49:48;13.30;;;6.13;;
66761;SDS011;53672;48.176;16.338;2023-10-13T00:54:49;12.27;;;6.50;;
66761;SDS011;53672;48.176;16.338;2023-10-13T00:59:52;10.80;;;5.90;;
66761;SDS011;53672;48.176;16.338;2023-10-13T01:04:53;13.10;;;6.35;;
66761;SDS011;53672;48.176;16.338;2023-10-13T01:09:53;12.43;;;5.80;;
66761;SDS011;53672;48.176;16.338;2023-10-13T01:14:55;13.00;;;5.90;;
66761;SDS011;53672;48.176;16.338;2023-10-13T01:19:56;12.63;;;5.75;;
66761;SDS011;53672;48.176;16.338;2023-10-13T01:24:58;16.63;;;6.63;;
66761;SDS011;53672;48.176;16.338;2023-10-13T01:29:59;14.35;;;6.40;;
66761;SDS011;53672;48.176;16.338;2023-10-13T01:34:59;14.63;;;6.80;;
66761;SDS011;53672;48.176;16.338;2023-10-13T01:40:01;11.63;;;6.50;;
66761;SDS011;53672;48.176;16.338;2023-10-13T01:45:01;13.73;;;6.45;;
66761;SDS011;53672;48.176;16.338;2023-10-13T01:50:02;13.03;;;6.37;;
66761;SDS011;53672;48.176;16.338;2023-10-13T01:55:05;13.40;;;6.67;;
66761;SDS011;53672;48.176;16.338;2023-10-13T02:00:07;12.93;;;6.43;;
66761;SDS011;53672;48.176;16.338;2023-10-13T02:05:08;13.82;;;6.68;;
66761;SDS011;53672;48.176;16.338;2023-10-13T02:10:10;13.10;;;6.10;;
66761;SDS011;53672;48.176;16.338;2023-10-13T02:15:11;14.97;;;6.40;;
66761;SDS011;53672;48.176;16.338;2023-10-13T02:20:12;12.38;;;6.60;;
66761;SDS011;53672;48.176;16.338;2023-10-13T02:25:14;15.03;;;6.47;;
66761;SDS011;53672;48.176;16.338;2023-10-13T02:30:15;14.80;;;6.97;;
66761;SDS011;53672;48.176;16.338;2023-10-13T02:35:15;13.60;;;6.03;;
66761;SDS011;53672;48.176;16.338;2023-10-13T02:40:17;12.47;;;6.40;;
66761;SDS011;53672;48.176;16.338;2023-10-13T02:45:18;15.55;;;7.50;;
66761;SDS011;53672;48.176;16.338;2023-10-13T02:50:18;16.33;;;6.88;;
66761;SDS011;53672;48.176;16.338;2023-10-13T02:55:20;13.53;;;7.03;;
66761;SDS011;53672;48.176;16.338;2023-10-13T03:00:20;14.30;;;6.90;;
66761;SDS011;53672;48.176;16.338;2023-10-13T03:05:21;14.60;;;6.80;;
66761;SDS011;53672;48.176;16.338;2023-10-13T03:10:23;15.70;;;7.33;;
66761;SDS011;53672;48.176;16.338;2023-10-13T03:15:23;14.48;;;7.07;;
66761;SDS011;53672;48.176;16.338;2023-10-13T03:20:24;13.30;;;6.87;;
66761;SDS011;53672;48.176;16.338;2023-10-13T03:25:26;12.23;;;6.47;;
66761;SDS011;53672;48.176;16.338;2023-10-13T03:30:26;14.13;;;6.25;;
66761;SDS011;53672;48.176;16.338;2023-10-13T03:35:27;13.10;;;6.57;;
66761;SDS011;53672;48.176;16.338;2023-10-13T03:40:29;11.73;;;6.43;;
66761;SDS011;53672;48.176;16.338;2023-10-13T03:45:30;11.57;;;5.70;;
66761;SDS011;53672;48.176;16.338;2023-10-13T03:50:31;12.65;;;6.00;;
66761;SDS011;53672;48.176;16.338;2023-10-13T03:55:33;11.43;;;6.17;;
66761;SDS011;53672;48.176;16.338;2023-10-13T04:00:34;13.20;;;6.03;;
66761;SDS011;53672;48.176;16.338;2023-10-13T04:05:35;11.07;;;5.50;;
66761;SDS011;53672;48.176;16.338;2023-10-13T04:10:37;15.95;;;6.28;;
66761;SDS011;53672;48.176;16.338;2023-10-13T04:15:37;15.13;;;6.57;;
66761;SDS011;53672;48.176;16.338;2023-10-13T04:20:38;11.03;;;6.30;;
66761;SDS011;53672;48.176;16.338;2023-10-13T04:25:40;13.30;;;6.07;;
66761;SDS011;53672;48.176;16.338;2023-10-13T04:30:40;12.98;;;6.25;;
66761;SDS011;53672;48.176;16.338;2023-10-13T04:35:41;13.02;;;6.30;;
66761;SDS011;53672;48.176;16.338;2023-10-13T04:40:43;12.33;;;6.30;;
66761;SDS011;53672;48.176;16.338;2023-10-13T04:45:44;13.07;;;6.22;;
66761;SDS011;53672;48.176;16.338;2023-10-13T04:50:45;12.07;;;6.03;;
66761;SDS011;53672;48.176;16.338;2023-10-13T04:55:50;13.23;;;7.05;;
66761;SDS011;53672;48.176;16.338;2023-10-13T05:00:50;15.93;;;6.82;;
66761;SDS011;53672;48.176;16.338;2023-10-13T05:05:51;16.93;;;6.87;;
66761;SDS011;53672;48.176;16.338;2023-10-13T05:10:52;14.80;;;5.63;;
66761;SDS011;53672;48.176;16.338;2023-10-13T05:15:53;13.27;;;6.18;;
66761;SDS011;53672;48.176;16.338;2023-10-13T05:20:54;14.30;;;7.00;;
66761;SDS011;53672;48.176;16.338;2023-10-13T05:25:59;11.52;;;6.47;;
66761;SDS011;53672;48.176;16.338;2023-10-13T05:31:02;15.87;;;6.30;;
66761;SDS011;53672;48.176;16.338;2023-10-13T05:36:02;11.68;;;6.22;;
66761;SDS011;53672;48.176;16.338;2023-10-13T05:41:11;11.93;;;5.83;;
66761;SDS011;53672;48.176;16.338;2023-10-13T05:46:12;11.52;;;5.68;;
66761;SDS011;53672;48.176;16.338;2023-10-13T05:51:12;11.93;;;6.17;;
66761;SDS011;53672;48.176;16.338;2023-10-13T05:56:14;10.50;;;5.83;;
66761;SDS011;53672;48.176;16.338;2023-10-13T06:01:15;12.00;;;6.40;;
66761;SDS011;53672;48.176;16.338;2023-10-13T06:06:15;16.23;;;8.13;;
66761;SDS011;53672;48.176;16.338;2023-10-13T06:11:17;13.40;;;6.20;;
66761;SDS011;53672;48.176;16.338;2023-10-13T06:16:19;13.73;;;5.97;;
66761;SDS011;53672;48.176;16.338;2023-10-13T06:21:20;13.53;;;6.00;;
66761;SDS011;53672;48.176;16.338;2023-10-13T06:26:22;15.57;;;6.35;;
66761;SDS011;53672;48.176;16.338;2023-10-13T06:31:23;13.40;;;6.47;;
66761;SDS011;53672;48.176;16.338;2023-10-13T06:36:23;15.70;;;7.20;;
66761;SDS011;53672;48.176;16.338;2023-10-13T06:41:25;15.48;;;7.25;;
66761;SDS011;53672;48.176;16.338;2023-10-13T06:46:26;17.80;;;7.97;;
66761;SDS011;53672;48.176;16.338;2023-10-13T06:51:27;18.45;;;8.70;;
66761;SDS011;53672;48.176;16.338;2023-10-13T06:56:29;14.70;;;8.50;;
66761;SDS011;53672;48.176;16.338;2023-10-13T07:01:29;18.50;;;8.27;;
66761;SDS011;53672;48.176;16.338;2023-10-13T07:06:30;14.52;;;7.45;;
66761;SDS011;53672;48.176;16.338;2023-10-13T07:11:32;17.93;;;8.03;;
66761;SDS011;53672;48.176;16.338;2023-10-13T07:16:32;17.48;;;6.95;;
66761;SDS011;53672;48.176;16.338;2023-10-13T07:21:33;14.07;;;6.80;;
66761;SDS011;53672;48.176;16.338;2023-10-13T07:26:35;14.00;;;6.13;;
66761;SDS011;53672;48.176;16.338;2023-10-13T07:31:36;13.32;;;6.18;;
66761;SDS011;53672;48.176;16.338;2023-10-13T07:36:36;16.17;;;7.03;;
66761;SDS011;53672;48.176;16.338;2023-10-13T07:41:38;11.90;;;6.03;;
66761;SDS011;53672;48.176;16.338;2023-10-13T07:46:39;13.50;;;5.47;;
66761;SDS011;53672;48.176;16.338;2023-10-13T07:51:39;13.47;;;6.00;;
66761;SDS011;53672;48.176;16.338;2023-10-13T07:56:41;10.43;;;5.53;;
66761;SDS011;53672;48.176;16.338;2023-10-13T08:01:42;13.90;;;5.93;;
66761;SDS011;53672;48.176;16.338;2023-10-13T08:06:42;13.10;;;6.43;;
66761;SDS011;53672;48.176;16.338;2023-10-13T08:11:44;13.43;;;6.90;;
66761;SDS011;53672;48.176;16.338;2023-10-13T08:16:45;13.55;;;6.35;;
66761;SDS011;53672;48.176;16.338;2023-10-13T08:21:46;17.70;;;6.87;;
66761;SDS011;53672;48.176;16.338;2023-10-13T08:26:48;17.13;;;7.10;;
66761;SDS011;53672;48.176;16.338;2023-10-13T08:31:49;13.20;;;6.60;;
66761;SDS011;53672;48.176;16.338;2023-10-13T08:36:50;12.02;;;5.45;;
66761;SDS011;53672;48.176;16.338;2023-10-13T08:41:52;15.57;;;5.43;;
66761;SDS011;53672;48.176;16.338;2023-10-13T08:46:52;11.18;;;4.72;;
66761;SDS011;53672;48.176;16.338;2023-10-13T08:51:53;10.70;;;4.65;;
66761;SDS011;53672;48.176;16.338;2023-10-13T08:56:56;11.57;;;5.10;;
66761;SDS011;53672;48.176;16.338;2023-10-13T09:01:56;14.83;;;4.80;;
66761;SDS011;53672;48.176;16.338;2023-10-13T09:06:57;11.17;;;4.47;;
66761;SDS011;53672;48.176;16.338;2023-10-13T09:12:00;8.52;;;4.20;;
66761;SDS011;53672;48.176;16.338;2023-10-13T09:17:01;9.27;;;4.20;;
66761;SDS011;53672;48.176;16.338;2023-10-13T09:22:03;12.03;;;4.23;;
66761;SDS011;53672;48.176;16.338;2023-10-13T09:27:04;7.57;;;3.93;;
66761;SDS011;53672;48.176;16.338;2023-10-13T09:32:05;9.18;;;3.60;;
66761;SDS011;53672;48.176;16.338;2023-10-13T09:37:05;12.27;;;4.20;;
66761;SDS011;53672;48.176;16.338;2023-10-13T09:42:07;8.20;;;3.90;;
66761;SDS011;53672;48.176;16.338;2023-10-13T09:52:12;12.30;;;4.73;;
66761;SDS011;53672;48.176;16.338;2023-10-13T09:57:16;10.60;;;4.88;;
66761;SDS011;53672;48.176;16.338;2023-10-13T10:02:19;11.23;;;4.23;;
66761;SDS011;53672;48.176;16.338;2023-10-13T10:07:24;12.98;;;4.40;;
66761;SDS011;53672;48.176;16.338;2023-10-13T10:12:29;11.18;;;4.20;;
66761;SDS011;53672;48.176;16.338;2023-10-13T10:17:38;9.80;;;4.40;;
66761;SDS011;53672;48.176;16.338;2023-10-13T10:22:41;11.73;;;4.55;;
66761;SDS011;53672;48.176;16.338;2023-10-13T10:27:42;8.23;;;4.50;;
66761;SDS011;53672;48.176;16.338;2023-10-13T10:32:43;10.82;;;5.50;;
66761;SDS011;53672;48.176;16.338;2023-10-13T10:37:43;8.27;;;4.70;;
66761;SDS011;53672;48.176;16.338;2023-10-13T10:42:51;12.37;;;5.37;;
66761;SDS011;53672;48.176;16.338;2023-10-13T10:47:51;10.82;;;5.50;;
66761;SDS011;53672;48.176;16.338;2023-10-13T10:52:52;8.57;;;5.23;;
66761;SDS011;53672;48.176;16.338;2023-10-13T10:57:59;10.77;;;5.63;;
66761;SDS011;53672;48.176;16.338;2023-10-13T11:03:00;12.97;;;5.63;;
66761;SDS011;53672;48.176;16.338;2023-10-13T11:08:00;10.97;;;6.03;;
66761;SDS011;53672;48.176;16.338;2023-10-13T11:13:03;8.85;;;5.95;;
66761;SDS011;53672;48.176;16.338;2023-10-13T11:18:03;9.73;;;6.20;;
66761;SDS011;53672;48.176;16.338;2023-10-13T11:23:10;9.65;;;6.25;;
66761;SDS011;53672;48.176;16.338;2023-10-13T11:28:13;10.27;;;6.53;;
66761;SDS011;53672;48.176;16.338;2023-10-13T11:33:14;12.40;;;6.35;;
66761;SDS011;53672;48.176;16.338;2023-10-13T11:38:16;10.17;;;5.80;;
66761;SDS011;53672;48.176;16.338;2023-10-13T11:43:18;9.32;;;5.35;;
66761;SDS011;53672;48.176;16.338;2023-10-13T11:48:18;8.95;;;5.10;;
66761;SDS011;53672;48.176;16.338;2023-10-13T11:53:19;8.07;;;4.67;;
66761;SDS011;53672;48.176;16.338;2023-10-13T11:58:21;11.60;;;4.10;;
66761;SDS011;53672;48.176;16.338;2023-10-13T12:03:21;12.23;;;4.30;;
66761;SDS011;53672;48.176;16.338;2023-10-13T12:08:22;8.23;;;4.10;;
66761;SDS011;53672;48.176;16.338;2023-10-13T12:13:23;10.30;;;4.33;;
66761;SDS011;53672;48.176;16.338;2023-10-13T12:18:24;9.23;;;4.45;;
66761;SDS011;53672;48.176;16.338;2023-10-13T12:23:24;7.97;;;3.80;;
66761;SDS011;53672;48.176;16.338;2023-10-13T12:28:26;12.87;;;4.47;;
66761;SDS011;53672;48.176;16.338;2023-10-13T12:33:27;8.00;;;3.97;;
66761;SDS011;53672;48.176;16.338;2023-10-13T12:38:27;9.83;;;3.80;;
66761;SDS011;53672;48.176;16.338;2023-10-13T12:43:29;9.27;;;4.60;;
66761;SDS011;53672;48.176;16.338;2023-10-13T12:48:30;8.88;;;4.32;;
66761;SDS011;53672;48.176;16.338;2023-10-13T12:53:31;10.33;;;4.43;;
66761;SDS011;53672;48.176;16.338;2023-10-13T12:58:33;13.77;;;4.33;;
66761;SDS011;53672;48.176;16.338;2023-10-13T13:03:33;12.15;;;4.22;;
66761;SDS011;53672;48.176;16.338;2023-10-13T13:08:34;11.93;;;4.05;;
66761;SDS011;53672;48.176;16.338;2023-10-13T13:13:36;12.93;;;3.90;;
66761;SDS011;53672;48.176;16.338;2023-10-13T13:18:36;8.70;;;4.23;;
66761;SDS011;53672;48.176;16.338;2023-10-13T13:23:37;11.80;;;3.83;;
66761;SDS011;53672;48.176;16.338;2023-10-13T13:28:39;9.60;;;3.60;;
66761;SDS011;53672;48.176;16.338;2023-10-13T13:33:39;14.45;;;4.72;;
66761;SDS011;53672;48.176;16.338;2023-10-13T13:38:40;12.53;;;3.83;;
66761;SDS011;53672;48.176;16.338;2023-10-13T13:43:42;10.37;;;4.10;;
66761;SDS011;53672;48.176;16.338;2023-10-13T13:48:42;11.93;;;4.68;;
66761;SDS011;53672;48.176;16.338;2023-10-13T13:53:43;9.67;;;3.67;;
66761;SDS011;53672;48.176;16.338;2023-10-13T13:58:46;12.20;;;4.00;;
66761;SDS011;53672;48.176;16.338;2023-10-13T14:03:48;10.15;;;3.75;;
66761;SDS011;53672;48.176;16.338;2023-10-13T14:08:49;11.05;;;4.13;;
66761;SDS011;53672;48.176;16.338;2023-10-13T14:13:51;12.27;;;4.83;;
66761;SDS011;53672;48.176;16.338;2023-10-13T14:18:52;11.98;;;4.22;;
66761;SDS011;53672;48.176;16.338;2023-10-13T14:23:52;12.23;;;4.00;;
66761;SDS011;53672;48.176;16.338;2023-10-13T14:28:55;9.27;;;3.70;;
66761;SDS011;53672;48.176;16.338;2023-10-13T14:33:55;10.05;;;4.20;;
66761;SDS011;53672;48.176;16.338;2023-10-13T14:38:56;9.17;;;3.93;;
66761;SDS011;53672;48.176;16.338;2023-10-13T14:43:58;8.67;;;4.20;;
66761;SDS011;53672;48.176;16.338;2023-10-13T14:48:58;10.25;;;4.03;;
66761;SDS011;53672;48.176;16.338;2023-10-13T14:53:59;11.00;;;3.90;;
66761;SDS011;53672;48.176;16.338;2023-10-13T14:59:00;8.97;;;3.70;;
66761;SDS011;53672;48.176;16.338;2023-10-13T15:04:01;9.68;;;3.85;;
66761;SDS011;53672;48.176;16.338;2023-10-13T15:09:01;10.90;;;4.17;;
66761;SDS011;53672;48.176;16.338;2023-10-13T15:14:04;10.27;;;3.70;;
66761;SDS011;53672;48.176;16.338;2023-10-13T15:19:04;15.15;;;4.70;;
66761;SDS011;53672;48.176;16.338;2023-10-13T15:24:05;9.93;;;4.10;;
66761;SDS011;53672;48.176;16.338;2023-10-13T15:29:08;13.30;;;4.37;;
66761;SDS011;53672;48.176;16.338;2023-10-13T15:34:11;10.30;;;3.85;;
66761;SDS011;53672;48.176;16.338;2023-10-13T15:39:12;9.25;;;4.07;;
66761;SDS011;53672;48.176;16.338;2023-10-13T15:44:14;10.20;;;4.17;;
66761;SDS011;53672;48.176;16.338;2023-10-13T15:49:14;10.27;;;3.97;;
66761;SDS011;53672;48.176;16.338;2023-10-13T15:54:16;10.50;;;4.10;;
66761;SDS011;53672;48.176;16.338;2023-10-13T15:59:18;11.37;;;4.50;;
66761;SDS011;53672;48.176;16.338;2023-10-13T16:04:19;13.60;;;4.18;;
66761;SDS011;53672;48.176;16.338;2023-10-13T16:09:19;10.40;;;3.80;;
66761;SDS011;53672;48.176;16.338;2023-10-13T16:14:21;14.00;;;3.90;;
66761;SDS011;53672;48.176;16.338;2023-10-13T16:19:22;11.60;;;4.72;;
66761;SDS011;53672;48.176;16.338;2023-10-13T16:24:22;11.70;;;4.33;;
66761;SDS011;53672;48.176;16.338;2023-10-13T16:29:24;10.87;;;4.03;;
66761;SDS011;53672;48.176;16.338;2023-10-13T16:34:25;8.10;;;3.63;;
66761;SDS011;53672;48.176;16.338;2023-10-13T16:39:25;12.87;;;3.83;;
66761;SDS011;53672;48.176;16.338;2023-10-13T16:44:27;9.53;;;3.93;;
66761;SDS011;53672;48.176;16.338;2023-10-13T16:49:28;9.82;;;4.00;;
66761;SDS011;53672;48.176;16.338;2023-10-13T16:54:28;10.93;;;3.80;;
66761;SDS011;53672;48.176;16.338;2023-10-13T16:59:30;13.60;;;4.17;;
66761;SDS011;53672;48.176;16.338;2023-10-13T17:04:30;9.63;;;3.53;;
66761;SDS011;53672;48.176;16.338;2023-10-13T17:09:31;13.53;;;4.30;;
66761;SDS011;53672;48.176;16.338;2023-10-13T17:14:33;10.93;;;4.18;;
66761;SDS011;53672;48.176;16.338;2023-10-13T17:19:33;11.53;;;4.27;;
66761;SDS011;53672;48.176;16.338;2023-10-13T17:24:34;8.80;;;3.90;;
66761;SDS011;53672;48.176;16.338;2023-10-13T17:29:36;11.87;;;4.33;;
66761;SDS011;53672;48.176;16.338;2023-10-13T17:34:37;11.50;;;4.30;;
66761;SDS011;53672;48.176;16.338;2023-10-13T17:39:37;11.02;;;4.32;;
66761;SDS011;53672;48.176;16.338;2023-10-13T17:44:39;13.13;;;4.78;;
66761;SDS011;53672;48.176;16.338;2023-10-13T17:49:39;10.10;;;4.27;;
66761;SDS011;53672;48.176;16.338;2023-10-13T17:54:40;13.17;;;4.60;;
66761;SDS011;53672;48.176;16.338;2023-10-13T17:59:42;11.93;;;4.60;;
66761;SDS011;53672;48.176;16.338;2023-10-13T18:04:42;14.68;;;4.57;;
66761;SDS011;53672;48.176;16.338;2023-10-13T18:09:43;10.85;;;4.50;;
66761;SDS011;53672;48.176;16.338;2023-10-13T18:14:45;10.13;;;4.50;;
66761;SDS011;53672;48.176;16.338;2023-10-13T18:19:46;11.93;;;4.40;;
66761;SDS011;53672;48.176;16.338;2023-10-13T18:24:47;10.88;;;4.45;;
66761;SDS011;53672;48.176;16.338;2023-10-13T18:29:50;14.50;;;5.03;;
66761;SDS011;53672;48.176;16.338;2023-10-13T18:34:51;11.75;;;4.75;;
66761;SDS011;53672;48.176;16.338;2023-10-13T18:39:52;15.80;;;4.53;;
66761;SDS011;53672;48.176;16.338;2023-10-13T18:44:54;17.00;;;4.95;;
66761;SDS011;53672;48.176;16.338;2023-10-13T18:49:56;13.02;;;4.40;;
66761;SDS011;53672;48.176;16.338;2023-10-13T18:54:57;13.20;;;4.25;;
66761;SDS011;53672;48.176;16.338;2023-10-13T19:00:00;11.05;;;4.57;;
66761;SDS011;53672;48.176;16.338;2023-10-13T19:05:01;14.27;;;4.83;;
66761;SDS011;53672;48.176;16.338;2023-10-13T19:10:03;13.15;;;4.90;;
66761;SDS011;53672;48.176;16.338;2023-10-13T19:15:06;12.30;;;4.97;;
66761;SDS011;53672;48.176;16.338;2023-10-13T19:20:08;12.50;;;5.20;;
66761;SDS011;53672;48.176;16.338;2023-10-13T19:25:10;13.40;;;4.38;;
66761;SDS011;53672;48.176;16.338;2023-10-13T19:30:13;11.67;;;4.43;;
66761;SDS011;53672;48.176;16.338;2023-10-13T19:35:15;10.65;;;4.53;;
66761;SDS011;53672;48.176;16.338;2023-10-13T19:40:16;11.02;;;4.95;;
66761;SDS011;53672;48.176;16.338;2023-10-13T19:45:18;13.10;;;5.30;;
66761;SDS011;53672;48.176;16.338;2023-10-13T19:50:19;12.70;;;4.90;;
66761;SDS011;53672;48.176;16.338;2023-10-13T19:55:23;12.23;;;4.73;;
66761;SDS011;53672;48.176;16.338;2023-10-13T20:00:26;13.57;;;4.85;;
66761;SDS011;53672;48.176;16.338;2023-10-13T20:05:27;12.38;;;5.10;;
66761;SDS011;53672;48.176;16.338;2023-10-13T20:10:30;11.00;;;4.63;;
66761;SDS011;53672;48.176;16.338;2023-10-13T20:15:32;14.93;;;4.63;;
66761;SDS011;53672;48.176;16.338;2023-10-13T20:20:33;10.57;;;5.10;;
66761;SDS011;53672;48.176;16.338;2023-10-13T20:25:34;12.70;;;5.38;;
66761;SDS011;53672;48.176;16.338;2023-10-13T20:30:36;16.03;;;5.33;;
66761;SDS011;53672;48.176;16.338;2023-10-13T20:35:44;12.75;;;5.07;;
66761;SDS011;53672;48.176;16.338;2023-10-13T20:40:45;12.88;;;5.43;;
66761;SDS011;53672;48.176;16.338;2023-10-13T20:45:53;11.93;;;5.40;;
66761;SDS011;53672;48.176;16.338;2023-10-13T20:50:57;13.73;;;5.70;;
66761;SDS011;53672;48.176;16.338;2023-10-13T20:55:58;13.60;;;5.75;;
66761;SDS011;53672;48.176;16.338;2023-10-13T21:01:06;13.85;;;6.05;;
66761;SDS011;53672;48.176;16.338;2023-10-13T21:06:09;12.93;;;5.95;;
66761;SDS011;53672;48.176;16.338;2023-10-13T21:11:09;15.67;;;6.87;;
66761;SDS011;53672;48.176;16.338;2023-10-13T21:16:14;16.40;;;6.20;;
66761;SDS011;53672;48.176;16.338;2023-10-13T21:21:15;15.98;;;6.22;;
66761;SDS011;53672;48.176;16.338;2023-10-13T21:26:17;15.80;;;6.70;;
66761;SDS011;53672;48.176;16.338;2023-10-13T21:31:19;15.07;;;5.82;;
66761;SDS011;53672;48.176;16.338;2023-10-13T21:36:20;16.33;;;6.28;;
66761;SDS011;53672;48.176;16.338;2023-10-13T21:41:21;19.20;;;6.17;;
66761;SDS011;53672;48.176;16.338;2023-10-13T21:46:24;17.80;;;7.28;;
66761;SDS011;53672;48.176;16.338;2023-10-13T21:51:25;18.30;;;7.53;;
66761;SDS011;53672;48.176;16.338;2023-10-13T21:56:25;18.45;;;8.65;;
66761;SDS011;53672;48.176;16.338;2023-10-13T22:01:27;19.10;;;8.73;;
66761;SDS011;53672;48.176;16.338;2023-10-13T22:06:28;21.40;;;8.73;;
66761;SDS011;53672;48.176;16.338;2023-10-13T22:11:28;19.80;;;9.10;;
66761;SDS011;53672;48.176;16.338;2023-10-13T22:16:30;18.30;;;8.25;;
66761;SDS011;53672;48.176;16.338;2023-10-13T22:21:31;21.67;;;8.90;;
66761;SDS011;53672;48.176;16.338;2023-10-13T22:26:31;19.97;;;9.47;;
66761;SDS011;53672;48.176;16.338;2023-10-13T22:31:33;19.63;;;9.30;;
66761;SDS011;53672;48.176;16.338;2023-10-13T22:36:34;19.67;;;10.15;;
66761;SDS011;53672;48.176;16.338;2023-10-13T22:41:34;18.27;;;9.50;;
66761;SDS011;53672;48.176;16.338;2023-10-13T22:46:36;19.37;;;9.30;;
66761;SDS011;53672;48.176;16.338;2023-10-13T22:51:36;19.75;;;9.85;;
66761;SDS011;53672;48.176;16.338;2023-10-13T22:56:37;17.60;;;8.83;;
66761;SDS011;53672;48.176;16.338;2023-10-13T23:01:39;19.30;;;9.10;;
66761;SDS011;53672;48.176;16.338;2023-10-13T23:06:39;21.00;;;9.27;;
66761;SDS011;53672;48.176;16.338;2023-10-13T23:11:40;20.90;;;9.88;;
66761;SDS011;53672;48.176;16.338;2023-10-13T23:16:42;19.90;;;9.43;;
66761;SDS011;53672;48.176;16.338;2023-10-13T23:21:42;17.52;;;9.52;;
66761;SDS011;53672;48.176;16.338;2023-10-13T23:26:43;23.85;;;10.57;;
66761;SDS011;53672;48.176;16.338;2023-10-13T23:31:45;25.02;;;10.63;;
66761;SDS011;53672;48.176;16.338;2023-10-13T23:36:45;26.20;;;11.23;;
66761;SDS011;53672;48.176;16.338;2023-10-13T23:41:46;29.93;;;12.13;;
66761;SDS011;53672;48.176;16.338;2023-10-13T23:46:47;25.37;;;12.53;;
66761;SDS011;53672;48.176;16.338;2023-10-13T23:51:48;24.17;;;11.93;;
66761;SDS011;53672;48.176;16.338;2023-10-13T23:56:48;24.87;;;12.20;;
